sensor_id;sensor_type;location;lat;lon;timestamp;temperature;humidity
10883;DHT22;5494;51.796;10.952;2024-01-10T00:01:07;-8.90;99.90
10883;DHT22;5494;51.796;10.952;2024-01-10T00:03:35;-8.90;99.90
10883;DHT22;5494;51.796;10.952;2024-01-10T00:06:05;-8.90;99.90
10883;DHT22;5494;51.796;10.952;2024-01-10T00:08:33;-8.90;99.90
10883;DHT22;5494;51.796;10.952;2024-01-10T00:11:01;-8.90;99.90
10883;DHT22;5494;51.796;10.952;2024-01-10T00:13:31;-8.90;99.90
10883;DHT22;5494;51.796;10.952;2024-01-10T00:16:01;-8.90;99.90
10883;DHT22;5494;51.796;10.952;2024-01-10T00:18:29;-8.90;99.90
10883;DHT22;5494;51.796;10.952;2024-01-10T00:20:58;-8.90;99.90
10883;DHT22;5494;51.796;10.952;2024-01-10T00:23:27;-8.90;99.90
10883;DHT22;5494;51.796;10.952;2024-01-10T00:25:55;-8.90;99.90
10883;DHT22;5494;51.796;10.952;2024-01-10T00:28:23;-9.00;99.90
10883;DHT22;5494;51.796;10.952;2024-01-10T00:30:52;-8.90;99.90
10883;DHT22;5494;51.796;10.952;2024-01-10T00:33:20;-9.00;99.90
10883;DHT22;5494;51.796;10.952;2024-01-10T00:35:48;-9.00;99.90
10883;DHT22;5494;51.796;10.952;2024-01-10T00:38:17;-9.00;99.90
10883;DHT22;5494;51.796;10.952;2024-01-10T00:40:46;-9.00;99.90
10883;DHT22;5494;51.796;10.952;2024-01-10T00:43:14;-9.00;99.90
10883;DHT22;5494;51.796;10.952;2024-01-10T00:45:42;-9.00;99.90
10883;DHT22;5494;51.796;10.952;2024-01-10T00:48:10;-9.00;99.90
10883;DHT22;5494;51.796;10.952;2024-01-10T00:50:39;-9.10;99.90
10883;DHT22;5494;51.796;10.952;2024-01-10T00:53:07;-9.10;99.90
10883;DHT22;5494;51.796;10.952;2024-01-10T00:55:35;-9.10;99.90
10883;DHT22;5494;51.796;10.952;2024-01-10T00:58:05;-9.00;99.90
10883;DHT22;5494;51.796;10.952;2024-01-10T01:00:33;-9.00;99.90
10883;DHT22;5494;51.796;10.952;2024-01-10T01:03:01;-8.90;99.90
10883;DHT22;5494;51.796;10.952;2024-01-10T01:05:29;-8.90;99.90
10883;DHT22;5494;51.796;10.952;2024-01-10T01:07:57;-8.90;99.90
10883;DHT22;5494;51.796;10.952;2024-01-10T01:10:25;-8.90;99.90
10883;DHT22;5494;51.796;10.952;2024-01-10T01:12:53;-8.90;99.90
10883;DHT22;5494;51.796;10.952;2024-01-10T01:15:23;-8.90;99.90
10883;DHT22;5494;51.796;10.952;2024-01-10T01:17:54;-8.90;99.90
10883;DHT22;5494;51.796;10.952;2024-01-10T01:20:22;-8.90;99.90
10883;DHT22;5494;51.796;10.952;2024-01-10T01:22:52;-9.00;99.90
10883;DHT22;5494;51.796;10.952;2024-01-10T01:25:20;-9.00;99.90
10883;DHT22;5494;51.796;10.952;2024-01-10T01:27:49;-9.00;99.90
10883;DHT22;5494;51.796;10.952;2024-01-10T01:30:17;-7.80;99.90
10883;DHT22;5494;51.796;10.952;2024-01-10T01:32:47;-9.10;99.90
10883;DHT22;5494;51.796;10.952;2024-01-10T01:35:15;-9.10;99.90
10883;DHT22;5494;51.796;10.952;2024-01-10T01:37:48;-9.10;99.90
10883;DHT22;5494;51.796;10.952;2024-01-10T01:40:17;-9.10;99.90
10883;DHT22;5494;51.796;10.952;2024-01-10T01:42:46;-9.20;99.90
10883;DHT22;5494;51.796;10.952;2024-01-10T01:45:15;-9.10;99.90
10883;DHT22;5494;51.796;10.952;2024-01-10T01:47:43;-9.20;99.90
10883;DHT22;5494;51.796;10.952;2024-01-10T01:50:13;-9.20;99.90
10883;DHT22;5494;51.796;10.952;2024-01-10T01:52:43;-9.20;99.90
10883;DHT22;5494;51.796;10.952;2024-01-10T01:55:12;-9.20;99.90
10883;DHT22;5494;51.796;10.952;2024-01-10T01:57:40;-9.20;99.90
10883;DHT22;5494;51.796;10.952;2024-01-10T02:00:09;-9.20;99.90
10883;DHT22;5494;51.796;10.952;2024-01-10T02:02:38;-9.20;99.90
10883;DHT22;5494;51.796;10.952;2024-01-10T02:05:07;-9.30;99.90
10883;DHT22;5494;51.796;10.952;2024-01-10T02:07:37;-9.30;99.90
10883;DHT22;5494;51.796;10.952;2024-01-10T02:10:06;-9.30;99.90
10883;DHT22;5494;51.796;10.952;2024-01-10T02:12:34;-9.20;99.90
10883;DHT22;5494;51.796;10.952;2024-01-10T02:15:03;-9.30;99.90
10883;DHT22;5494;51.796;10.952;2024-01-10T02:17:32;-9.20;99.90
10883;DHT22;5494;51.796;10.952;2024-01-10T02:20:10;-9.20;99.90
10883;DHT22;5494;51.796;10.952;2024-01-10T02:22:40;-9.30;99.90
10883;DHT22;5494;51.796;10.952;2024-01-10T02:25:10;-9.30;99.90
10883;DHT22;5494;51.796;10.952;2024-01-10T02:27:39;-9.30;99.90
10883;DHT22;5494;51.796;10.952;2024-01-10T02:30:08;-9.70;99.90
10883;DHT22;5494;51.796;10.952;2024-01-10T02:32:38;-9.30;99.90
10883;DHT22;5494;51.796;10.952;2024-01-10T02:35:07;-9.30;99.90
10883;DHT22;5494;51.796;10.952;2024-01-10T02:37:36;-9.30;99.90
10883;DHT22;5494;51.796;10.952;2024-01-10T02:40:05;-9.30;99.90
10883;DHT22;5494;51.796;10.952;2024-01-10T02:42:35;-9.30;99.90
10883;DHT22;5494;51.796;10.952;2024-01-10T02:45:04;-9.20;99.90
10883;DHT22;5494;51.796;10.952;2024-01-10T02:47:32;-9.30;99.90
10883;DHT22;5494;51.796;10.952;2024-01-10T02:50:00;-9.30;99.90
10883;DHT22;5494;51.796;10.952;2024-01-10T02:52:28;-9.30;99.90
10883;DHT22;5494;51.796;10.952;2024-01-10T02:54:56;-9.30;99.90
10883;DHT22;5494;51.796;10.952;2024-01-10T02:57:24;-9.30;99.90
10883;DHT22;5494;51.796;10.952;2024-01-10T02:59:54;-9.30;99.90
10883;DHT22;5494;51.796;10.952;2024-01-10T03:02:22;-9.30;99.90
10883;DHT22;5494;51.796;10.952;2024-01-10T03:04:51;-9.40;99.90
10883;DHT22;5494;51.796;10.952;2024-01-10T03:07:19;-9.40;99.90
10883;DHT22;5494;51.796;10.952;2024-01-10T03:09:47;-9.40;99.90
10883;DHT22;5494;51.796;10.952;2024-01-10T03:12:15;-9.40;99.90
10883;DHT22;5494;51.796;10.952;2024-01-10T03:14:43;-9.40;99.90
10883;DHT22;5494;51.796;10.952;2024-01-10T03:17:13;-9.40;99.90
10883;DHT22;5494;51.796;10.952;2024-01-10T03:19:41;-9.40;99.90
10883;DHT22;5494;51.796;10.952;2024-01-10T03:22:10;-9.40;99.90
10883;DHT22;5494;51.796;10.952;2024-01-10T03:24:39;-9.40;99.90
10883;DHT22;5494;51.796;10.952;2024-01-10T03:27:07;-9.40;99.90
10883;DHT22;5494;51.796;10.952;2024-01-10T03:29:35;-9.40;99.90
10883;DHT22;5494;51.796;10.952;2024-01-10T03:32:04;-9.40;99.90
10883;DHT22;5494;51.796;10.952;2024-01-10T03:34:34;-9.40;99.90
10883;DHT22;5494;51.796;10.952;2024-01-10T03:37:02;-9.40;99.90
10883;DHT22;5494;51.796;10.952;2024-01-10T03:39:30;-9.40;99.90
10883;DHT22;5494;51.796;10.952;2024-01-10T03:41:58;-9.40;99.90
10883;DHT22;5494;51.796;10.952;2024-01-10T03:44:26;-9.40;99.90
10883;DHT22;5494;51.796;10.952;2024-01-10T03:46:54;-9.40;99.90
10883;DHT22;5494;51.796;10.952;2024-01-10T03:49:22;-9.40;99.90
10883;DHT22;5494;51.796;10.952;2024-01-10T03:51:52;-9.40;99.90
10883;DHT22;5494;51.796;10.952;2024-01-10T03:54:20;-9.40;99.90
10883;DHT22;5494;51.796;10.952;2024-01-10T03:56:47;-9.40;99.90
10883;DHT22;5494;51.796;10.952;2024-01-10T03:59:16;-9.40;99.90
10883;DHT22;5494;51.796;10.952;2024-01-10T04:01:44;-9.40;99.90
10883;DHT22;5494;51.796;10.952;2024-01-10T04:04:12;-9.40;99.90
10883;DHT22;5494;51.796;10.952;2024-01-10T04:06:40;-9.50;99.90
10883;DHT22;5494;51.796;10.952;2024-01-10T04:09:09;-9.50;99.90
10883;DHT22;5494;51.796;10.952;2024-01-10T04:11:38;-9.50;99.90
10883;DHT22;5494;51.796;10.952;2024-01-10T04:14:06;-9.50;99.90
10883;DHT22;5494;51.796;10.952;2024-01-10T04:16:34;-9.50;99.90
10883;DHT22;5494;51.796;10.952;2024-01-10T04:19:02;-9.50;99.90
10883;DHT22;5494;51.796;10.952;2024-01-10T04:21:30;-9.50;99.90
10883;DHT22;5494;51.796;10.952;2024-01-10T04:23:58;-9.50;99.90
10883;DHT22;5494;51.796;10.952;2024-01-10T04:26:27;-8.90;99.90
10883;DHT22;5494;51.796;10.952;2024-01-10T04:28:56;-9.60;99.90
10883;DHT22;5494;51.796;10.952;2024-01-10T04:31:24;-9.60;99.90
10883;DHT22;5494;51.796;10.952;2024-01-10T04:33:53;-9.60;99.90
10883;DHT22;5494;51.796;10.952;2024-01-10T04:36:21;-9.60;99.90
10883;DHT22;5494;51.796;10.952;2024-01-10T04:38:49;-9.60;99.90
10883;DHT22;5494;51.796;10.952;2024-01-10T04:41:17;-9.50;99.90
10883;DHT22;5494;51.796;10.952;2024-01-10T04:43:47;-9.60;99.90
10883;DHT22;5494;51.796;10.952;2024-01-10T04:46:15;-9.60;99.90
10883;DHT22;5494;51.796;10.952;2024-01-10T04:48:43;-9.70;99.90
10883;DHT22;5494;51.796;10.952;2024-01-10T04:51:11;-9.70;99.90
10883;DHT22;5494;51.796;10.952;2024-01-10T04:53:39;-9.70;99.90
10883;DHT22;5494;51.796;10.952;2024-01-10T04:56:07;-9.70;99.90
10883;DHT22;5494;51.796;10.952;2024-01-10T04:58:35;-9.80;99.90
10883;DHT22;5494;51.796;10.952;2024-01-10T05:01:05;-9.70;99.90
10883;DHT22;5494;51.796;10.952;2024-01-10T05:03:33;-9.70;99.90
10883;DHT22;5494;51.796;10.952;2024-01-10T05:06:01;-9.70;99.90
10883;DHT22;5494;51.796;10.952;2024-01-10T05:08:30;-9.70;99.90
10883;DHT22;5494;51.796;10.952;2024-01-10T05:10:58;-9.80;99.90
10883;DHT22;5494;51.796;10.952;2024-01-10T05:13:26;-9.80;99.90
10883;DHT22;5494;51.796;10.952;2024-01-10T05:15:54;-9.70;99.90
10883;DHT22;5494;51.796;10.952;2024-01-10T05:18:24;-9.80;99.90
10883;DHT22;5494;51.796;10.952;2024-01-10T05:20:52;-9.80;99.90
10883;DHT22;5494;51.796;10.952;2024-01-10T05:23:20;-9.80;99.90
10883;DHT22;5494;51.796;10.952;2024-01-10T05:25:49;-9.80;99.90
10883;DHT22;5494;51.796;10.952;2024-01-10T05:28:17;-9.80;99.90
10883;DHT22;5494;51.796;10.952;2024-01-10T05:30:45;-9.80;99.90
10883;DHT22;5494;51.796;10.952;2024-01-10T05:33:13;-9.80;99.90
10883;DHT22;5494;51.796;10.952;2024-01-10T05:35:42;-9.80;99.90
10883;DHT22;5494;51.796;10.952;2024-01-10T05:38:10;-9.90;99.90
10883;DHT22;5494;51.796;10.952;2024-01-10T05:40:38;-9.90;99.90
10883;DHT22;5494;51.796;10.952;2024-01-10T05:43:07;-9.90;99.90
10883;DHT22;5494;51.796;10.952;2024-01-10T05:45:37;-9.80;99.90
10883;DHT22;5494;51.796;10.952;2024-01-10T05:48:05;-9.70;99.90
10883;DHT22;5494;51.796;10.952;2024-01-10T05:50:34;-9.70;99.90
10883;DHT22;5494;51.796;10.952;2024-01-10T05:53:04;-9.80;99.90
10883;DHT22;5494;51.796;10.952;2024-01-10T05:55:32;-9.90;99.90
10883;DHT22;5494;51.796;10.952;2024-01-10T05:58:00;-9.90;99.90
10883;DHT22;5494;51.796;10.952;2024-01-10T06:00:28;-9.90;99.90
10883;DHT22;5494;51.796;10.952;2024-01-10T06:02:56;-10.00;99.90
10883;DHT22;5494;51.796;10.952;2024-01-10T06:05:25;-10.00;99.90
10883;DHT22;5494;51.796;10.952;2024-01-10T06:07:53;-10.00;99.90
10883;DHT22;5494;51.796;10.952;2024-01-10T06:10:23;-10.00;99.90
10883;DHT22;5494;51.796;10.952;2024-01-10T06:12:51;-10.00;99.90
10883;DHT22;5494;51.796;10.952;2024-01-10T06:15:19;-10.00;99.90
10883;DHT22;5494;51.796;10.952;2024-01-10T06:17:47;-10.00;99.90
10883;DHT22;5494;51.796;10.952;2024-01-10T06:20:17;-10.00;99.90
10883;DHT22;5494;51.796;10.952;2024-01-10T06:22:45;-10.10;99.90
10883;DHT22;5494;51.796;10.952;2024-01-10T06:25:14;-10.10;99.90
10883;DHT22;5494;51.796;10.952;2024-01-10T06:27:43;-10.10;99.90
10883;DHT22;5494;51.796;10.952;2024-01-10T06:30:12;-10.10;99.90
10883;DHT22;5494;51.796;10.952;2024-01-10T06:32:43;-10.10;99.90
10883;DHT22;5494;51.796;10.952;2024-01-10T06:35:12;-10.20;99.90
10883;DHT22;5494;51.796;10.952;2024-01-10T06:37:40;-10.20;99.90
10883;DHT22;5494;51.796;10.952;2024-01-10T06:40:11;-10.30;99.90
10883;DHT22;5494;51.796;10.952;2024-01-10T06:42:39;-10.30;99.90
10883;DHT22;5494;51.796;10.952;2024-01-10T06:45:10;-10.20;99.90
10883;DHT22;5494;51.796;10.952;2024-01-10T06:47:38;-10.30;99.90
10883;DHT22;5494;51.796;10.952;2024-01-10T06:50:09;-10.30;99.90
10883;DHT22;5494;51.796;10.952;2024-01-10T06:52:38;-10.30;99.90
10883;DHT22;5494;51.796;10.952;2024-01-10T06:55:07;-10.20;99.90
10883;DHT22;5494;51.796;10.952;2024-01-10T06:57:36;-10.10;99.90
10883;DHT22;5494;51.796;10.952;2024-01-10T07:00:06;-10.10;99.90
10883;DHT22;5494;51.796;10.952;2024-01-10T07:02:38;-10.10;99.90
10883;DHT22;5494;51.796;10.952;2024-01-10T07:05:08;-10.00;99.90
10883;DHT22;5494;51.796;10.952;2024-01-10T07:07:36;-10.10;99.90
10883;DHT22;5494;51.796;10.952;2024-01-10T07:10:05;-10.00;99.90
10883;DHT22;5494;51.796;10.952;2024-01-10T07:12:34;-9.90;99.90
10883;DHT22;5494;51.796;10.952;2024-01-10T07:15:04;-9.90;99.90
10883;DHT22;5494;51.796;10.952;2024-01-10T07:17:34;-9.80;99.90
10883;DHT22;5494;51.796;10.952;2024-01-10T07:20:04;-9.80;99.90
10883;DHT22;5494;51.796;10.952;2024-01-10T07:22:34;-9.80;99.90
10883;DHT22;5494;51.796;10.952;2024-01-10T07:25:03;-9.80;99.90
10883;DHT22;5494;51.796;10.952;2024-01-10T07:27:34;-9.80;99.90
10883;DHT22;5494;51.796;10.952;2024-01-10T07:30:05;-9.90;99.90
10883;DHT22;5494;51.796;10.952;2024-01-10T07:32:41;-9.90;99.90
10883;DHT22;5494;51.796;10.952;2024-01-10T07:35:10;-9.90;99.90
10883;DHT22;5494;51.796;10.952;2024-01-10T07:37:42;-9.90;99.90
10883;DHT22;5494;51.796;10.952;2024-01-10T07:40:10;-9.90;99.90
10883;DHT22;5494;51.796;10.952;2024-01-10T07:42:40;-9.90;99.90
10883;DHT22;5494;51.796;10.952;2024-01-10T07:45:09;-9.80;99.90
10883;DHT22;5494;51.796;10.952;2024-01-10T07:47:38;-9.90;99.90
10883;DHT22;5494;51.796;10.952;2024-01-10T07:50:09;-9.80;99.90
10883;DHT22;5494;51.796;10.952;2024-01-10T07:52:44;-9.70;99.90
10883;DHT22;5494;51.796;10.952;2024-01-10T07:55:12;-9.70;99.90
10883;DHT22;5494;51.796;10.952;2024-01-10T07:57:41;-9.60;99.90
10883;DHT22;5494;51.796;10.952;2024-01-10T08:00:09;-9.40;99.90
10883;DHT22;5494;51.796;10.952;2024-01-10T08:02:38;-9.30;99.90
10883;DHT22;5494;51.796;10.952;2024-01-10T08:05:08;-9.10;99.90
10883;DHT22;5494;51.796;10.952;2024-01-10T08:07:37;-9.00;99.90
10883;DHT22;5494;51.796;10.952;2024-01-10T08:10:07;-8.80;99.90
10883;DHT22;5494;51.796;10.952;2024-01-10T08:12:37;-8.60;99.90
10883;DHT22;5494;51.796;10.952;2024-01-10T08:15:06;-8.40;99.90
10883;DHT22;5494;51.796;10.952;2024-01-10T08:17:35;-8.40;99.90
10883;DHT22;5494;51.796;10.952;2024-01-10T08:20:05;-8.20;99.90
10883;DHT22;5494;51.796;10.952;2024-01-10T08:22:37;-8.00;78.80
10883;DHT22;5494;51.796;10.952;2024-01-10T08:25:06;-7.80;1.00
10883;DHT22;5494;51.796;10.952;2024-01-10T08:27:34;-7.70;1.00
10883;DHT22;5494;51.796;10.952;2024-01-10T08:30:03;-7.60;1.00
10883;DHT22;5494;51.796;10.952;2024-01-10T08:32:32;-7.50;1.00
10883;DHT22;5494;51.796;10.952;2024-01-10T08:35:02;-7.40;99.90
10883;DHT22;5494;51.796;10.952;2024-01-10T08:37:33;-7.20;99.90
10883;DHT22;5494;51.796;10.952;2024-01-10T08:40:01;-6.90;1.00
10883;DHT22;5494;51.796;10.952;2024-01-10T08:42:34;-6.60;99.90
10883;DHT22;5494;51.796;10.952;2024-01-10T08:45:02;-6.20;99.90
10883;DHT22;5494;51.796;10.952;2024-01-10T08:47:31;-5.70;1.00
10883;DHT22;5494;51.796;10.952;2024-01-10T08:50:01;-5.30;99.90
10883;DHT22;5494;51.796;10.952;2024-01-10T08:52:30;-5.20;39.00
10883;DHT22;5494;51.796;10.952;2024-01-10T08:55:00;-4.70;1.00
10883;DHT22;5494;51.796;10.952;2024-01-10T08:57:28;-4.20;95.30
10883;DHT22;5494;51.796;10.952;2024-01-10T08:59:57;-4.00;1.00
10883;DHT22;5494;51.796;10.952;2024-01-10T09:02:25;-3.60;1.00
10883;DHT22;5494;51.796;10.952;2024-01-10T09:04:54;-3.30;1.00
10883;DHT22;5494;51.796;10.952;2024-01-10T09:07:22;-3.10;1.00
10883;DHT22;5494;51.796;10.952;2024-01-10T09:09:50;-3.10;1.00
10883;DHT22;5494;51.796;10.952;2024-01-10T09:12:19;-3.10;1.00
10883;DHT22;5494;51.796;10.952;2024-01-10T09:14:47;-2.80;99.90
10883;DHT22;5494;51.796;10.952;2024-01-10T09:17:15;-3.00;99.90
10883;DHT22;5494;51.796;10.952;2024-01-10T09:19:44;-3.30;1.00
10883;DHT22;5494;51.796;10.952;2024-01-10T09:22:12;-3.60;1.00
10883;DHT22;5494;51.796;10.952;2024-01-10T09:24:40;-3.80;1.00
10883;DHT22;5494;51.796;10.952;2024-01-10T09:27:09;-3.90;1.00
10883;DHT22;5494;51.796;10.952;2024-01-10T09:29:39;-3.90;1.00
10883;DHT22;5494;51.796;10.952;2024-01-10T09:32:07;-3.60;1.00
10883;DHT22;5494;51.796;10.952;2024-01-10T09:34:35;-3.00;1.00
10883;DHT22;5494;51.796;10.952;2024-01-10T09:37:03;-2.40;99.90
10883;DHT22;5494;51.796;10.952;2024-01-10T09:39:31;-1.90;99.90
10883;DHT22;5494;51.796;10.952;2024-01-10T09:42:00;-1.80;99.90
10883;DHT22;5494;51.796;10.952;2024-01-10T09:44:30;-1.50;99.90
10883;DHT22;5494;51.796;10.952;2024-01-10T09:47:01;-1.50;99.90
10883;DHT22;5494;51.796;10.952;2024-01-10T09:49:29;-1.80;99.90
10883;DHT22;5494;51.796;10.952;2024-01-10T09:51:58;-2.30;99.90
10883;DHT22;5494;51.796;10.952;2024-01-10T09:54:30;-2.50;99.90
10883;DHT22;5494;51.796;10.952;2024-01-10T09:56:58;-2.50;99.90
10883;DHT22;5494;51.796;10.952;2024-01-10T09:59:27;-2.50;99.90
10883;DHT22;5494;51.796;10.952;2024-01-10T10:01:56;-2.60;99.90
10883;DHT22;5494;51.796;10.952;2024-01-10T10:04:27;-2.80;99.90
10883;DHT22;5494;51.796;10.952;2024-01-10T10:06:58;-3.00;99.90
10883;DHT22;5494;51.796;10.952;2024-01-10T10:09:28;-2.70;99.90
10883;DHT22;5494;51.796;10.952;2024-01-10T10:11:57;-0.30;99.90
10883;DHT22;5494;51.796;10.952;2024-01-10T10:14:29;-2.10;99.90
10883;DHT22;5494;51.796;10.952;2024-01-10T10:17:13;-1.90;99.90
10883;DHT22;5494;51.796;10.952;2024-01-10T10:19:44;-1.80;99.90
10883;DHT22;5494;51.796;10.952;2024-01-10T10:22:14;-2.10;99.90
10883;DHT22;5494;51.796;10.952;2024-01-10T10:24:42;-2.30;99.90
10883;DHT22;5494;51.796;10.952;2024-01-10T10:27:16;-2.30;99.90
10883;DHT22;5494;51.796;10.952;2024-01-10T10:29:44;-2.20;99.90
10883;DHT22;5494;51.796;10.952;2024-01-10T10:32:15;-2.10;99.90
10883;DHT22;5494;51.796;10.952;2024-01-10T10:34:46;-2.00;99.90
10883;DHT22;5494;51.796;10.952;2024-01-10T10:37:15;-2.20;99.90
10883;DHT22;5494;51.796;10.952;2024-01-10T10:39:43;-2.70;99.90
10883;DHT22;5494;51.796;10.952;2024-01-10T10:42:12;-2.70;99.90
10883;DHT22;5494;51.796;10.952;2024-01-10T10:44:43;-2.80;99.90
10883;DHT22;5494;51.796;10.952;2024-01-10T10:47:15;-3.30;1.00
10883;DHT22;5494;51.796;10.952;2024-01-10T10:49:52;-3.70;1.00
10883;DHT22;5494;51.796;10.952;2024-01-10T10:52:22;-3.80;1.00
10883;DHT22;5494;51.796;10.952;2024-01-10T10:54:52;-4.20;1.00
10883;DHT22;5494;51.796;10.952;2024-01-10T10:57:25;-4.20;69.50
10883;DHT22;5494;51.796;10.952;2024-01-10T10:59:55;-3.70;1.00
10883;DHT22;5494;51.796;10.952;2024-01-10T11:02:25;-3.70;1.00
10883;DHT22;5494;51.796;10.952;2024-01-10T11:04:59;-3.70;1.00
10883;DHT22;5494;51.796;10.952;2024-01-10T11:07:31;-3.70;92.10
10883;DHT22;5494;51.796;10.952;2024-01-10T11:10:04;-3.90;1.00
10883;DHT22;5494;51.796;10.952;2024-01-10T11:12:55;-3.80;1.00
10883;DHT22;5494;51.796;10.952;2024-01-10T11:16:13;-3.90;1.00
10883;DHT22;5494;51.796;10.952;2024-01-10T11:22:32;-4.20;69.80
10883;DHT22;5494;51.796;10.952;2024-01-10T11:25:11;-4.50;99.90
10883;DHT22;5494;51.796;10.952;2024-01-10T11:27:39;-4.70;99.90
10883;DHT22;5494;51.796;10.952;2024-01-10T11:30:08;-4.60;69.80
10883;DHT22;5494;51.796;10.952;2024-01-10T11:32:38;-4.30;62.80
10883;DHT22;5494;51.796;10.952;2024-01-10T11:35:18;-4.10;57.40
10883;DHT22;5494;51.796;10.952;2024-01-10T11:37:49;-4.00;1.00
10883;DHT22;5494;51.796;10.952;2024-01-10T11:40:46;-4.00;1.00
10883;DHT22;5494;51.796;10.952;2024-01-10T11:43:15;-4.30;1.00
10883;DHT22;5494;51.796;10.952;2024-01-10T11:45:54;-4.50;99.90
10883;DHT22;5494;51.796;10.952;2024-01-10T11:48:26;-4.70;99.90
10883;DHT22;5494;51.796;10.952;2024-01-10T11:50:57;-4.90;99.90
10883;DHT22;5494;51.796;10.952;2024-01-10T11:53:42;-5.10;1.00
10883;DHT22;5494;51.796;10.952;2024-01-10T11:56:13;-5.10;63.30
10883;DHT22;5494;51.796;10.952;2024-01-10T11:59:00;-5.00;99.90
10883;DHT22;5494;51.796;10.952;2024-01-10T12:01:31;-4.90;99.90
10883;DHT22;5494;51.796;10.952;2024-01-10T12:04:00;-5.00;1.00
10883;DHT22;5494;51.796;10.952;2024-01-10T12:06:45;-5.00;1.00
10883;DHT22;5494;51.796;10.952;2024-01-10T12:09:15;-5.30;1.00
10883;DHT22;5494;51.796;10.952;2024-01-10T12:11:43;-5.50;1.00
10883;DHT22;5494;51.796;10.952;2024-01-10T12:14:11;-5.70;1.00
10883;DHT22;5494;51.796;10.952;2024-01-10T12:16:39;-5.70;1.00
10883;DHT22;5494;51.796;10.952;2024-01-10T12:19:08;-5.60;1.00
10883;DHT22;5494;51.796;10.952;2024-01-10T12:21:36;-5.50;1.00
10883;DHT22;5494;51.796;10.952;2024-01-10T12:24:05;-5.50;99.90
10883;DHT22;5494;51.796;10.952;2024-01-10T12:26:35;-5.50;99.90
10883;DHT22;5494;51.796;10.952;2024-01-10T12:29:03;-5.60;1.00
10883;DHT22;5494;51.796;10.952;2024-01-10T12:31:33;-5.70;99.90
10883;DHT22;5494;51.796;10.952;2024-01-10T12:34:01;-5.70;99.90
10883;DHT22;5494;51.796;10.952;2024-01-10T12:36:34;-5.70;45.10
10883;DHT22;5494;51.796;10.952;2024-01-10T12:39:02;-5.80;99.90
10883;DHT22;5494;51.796;10.952;2024-01-10T12:41:35;-5.80;99.90
10883;DHT22;5494;51.796;10.952;2024-01-10T12:44:04;-5.90;99.90
10883;DHT22;5494;51.796;10.952;2024-01-10T12:46:33;-5.70;1.00
10883;DHT22;5494;51.796;10.952;2024-01-10T12:49:02;-5.50;99.90
10883;DHT22;5494;51.796;10.952;2024-01-10T12:51:35;-5.50;99.90
10883;DHT22;5494;51.796;10.952;2024-01-10T12:54:03;-5.60;36.10
10883;DHT22;5494;51.796;10.952;2024-01-10T12:56:31;-5.60;1.00
10883;DHT22;5494;51.796;10.952;2024-01-10T12:59:01;-5.50;99.90
10883;DHT22;5494;51.796;10.952;2024-01-10T13:01:30;-5.60;1.00
10883;DHT22;5494;51.796;10.952;2024-01-10T13:03:58;-5.60;99.90
10883;DHT22;5494;51.796;10.952;2024-01-10T13:06:26;-5.60;1.00
10883;DHT22;5494;51.796;10.952;2024-01-10T13:08:54;-5.70;36.30
10883;DHT22;5494;51.796;10.952;2024-01-10T13:11:23;-5.60;1.00
10883;DHT22;5494;51.796;10.952;2024-01-10T13:13:51;-5.50;99.90
10883;DHT22;5494;51.796;10.952;2024-01-10T13:16:20;-5.40;99.90
10883;DHT22;5494;51.796;10.952;2024-01-10T13:18:48;-5.40;1.00
10883;DHT22;5494;51.796;10.952;2024-01-10T13:21:17;-5.30;1.00
10883;DHT22;5494;51.796;10.952;2024-01-10T13:23:45;-5.30;1.00
10883;DHT22;5494;51.796;10.952;2024-01-10T13:26:13;-5.30;99.90
10883;DHT22;5494;51.796;10.952;2024-01-10T13:28:41;-5.20;1.00
10883;DHT22;5494;51.796;10.952;2024-01-10T13:31:10;-5.20;1.00
10883;DHT22;5494;51.796;10.952;2024-01-10T13:33:39;-5.20;99.90
10883;DHT22;5494;51.796;10.952;2024-01-10T13:36:13;-5.20;99.90
10883;DHT22;5494;51.796;10.952;2024-01-10T13:38:41;-5.30;1.00
10883;DHT22;5494;51.796;10.952;2024-01-10T13:41:09;-5.40;1.00
10883;DHT22;5494;51.796;10.952;2024-01-10T13:43:37;-5.50;99.90
10883;DHT22;5494;51.796;10.952;2024-01-10T13:46:07;-5.50;99.90
10883;DHT22;5494;51.796;10.952;2024-01-10T13:48:35;-5.40;99.90
10883;DHT22;5494;51.796;10.952;2024-01-10T13:51:05;-5.30;99.90
10883;DHT22;5494;51.796;10.952;2024-01-10T13:53:34;-5.20;99.90
10883;DHT22;5494;51.796;10.952;2024-01-10T13:56:03;-5.10;1.00
10883;DHT22;5494;51.796;10.952;2024-01-10T13:58:32;-5.10;1.00
10883;DHT22;5494;51.796;10.952;2024-01-10T14:01:00;-5.10;1.00
10883;DHT22;5494;51.796;10.952;2024-01-10T14:03:28;-5.10;1.00
10883;DHT22;5494;51.796;10.952;2024-01-10T14:05:59;-5.20;1.00
10883;DHT22;5494;51.796;10.952;2024-01-10T14:08:29;-5.10;99.90
10883;DHT22;5494;51.796;10.952;2024-01-10T14:10:57;-5.20;1.00
10883;DHT22;5494;51.796;10.952;2024-01-10T14:13:26;-5.10;1.00
10883;DHT22;5494;51.796;10.952;2024-01-10T14:15:54;-5.10;1.00
10883;DHT22;5494;51.796;10.952;2024-01-10T14:18:22;-5.20;99.90
10883;DHT22;5494;51.796;10.952;2024-01-10T14:20:50;-5.30;99.90
10883;DHT22;5494;51.796;10.952;2024-01-10T14:23:18;-5.30;99.90
10883;DHT22;5494;51.796;10.952;2024-01-10T14:25:48;-5.30;99.90
10883;DHT22;5494;51.796;10.952;2024-01-10T14:28:19;-5.20;99.90
10883;DHT22;5494;51.796;10.952;2024-01-10T14:30:47;-5.20;99.90
10883;DHT22;5494;51.796;10.952;2024-01-10T14:33:18;-5.30;99.90
10883;DHT22;5494;51.796;10.952;2024-01-10T14:35:46;-5.30;99.90
10883;DHT22;5494;51.796;10.952;2024-01-10T14:38:15;-4.80;1.00
10883;DHT22;5494;51.796;10.952;2024-01-10T14:40:43;-5.30;1.00
10883;DHT22;5494;51.796;10.952;2024-01-10T14:43:12;-5.20;1.00
10883;DHT22;5494;51.796;10.952;2024-01-10T14:45:40;-5.30;1.00
10883;DHT22;5494;51.796;10.952;2024-01-10T14:48:08;-5.40;1.00
10883;DHT22;5494;51.796;10.952;2024-01-10T14:50:37;-5.40;1.00
10883;DHT22;5494;51.796;10.952;2024-01-10T14:53:05;-5.50;1.00
10883;DHT22;5494;51.796;10.952;2024-01-10T14:55:35;-4.80;1.00
10883;DHT22;5494;51.796;10.952;2024-01-10T14:58:03;-5.70;1.00
10883;DHT22;5494;51.796;10.952;2024-01-10T15:00:32;-5.70;1.00
10883;DHT22;5494;51.796;10.952;2024-01-10T15:03:01;-5.70;1.00
10883;DHT22;5494;51.796;10.952;2024-01-10T15:05:41;-5.80;1.00
10883;DHT22;5494;51.796;10.952;2024-01-10T15:08:10;-5.80;1.00
10883;DHT22;5494;51.796;10.952;2024-01-10T15:10:39;-5.80;1.00
10883;DHT22;5494;51.796;10.952;2024-01-10T15:13:10;-5.90;1.00
10883;DHT22;5494;51.796;10.952;2024-01-10T15:15:39;-5.90;1.00
10883;DHT22;5494;51.796;10.952;2024-01-10T15:18:09;-5.90;1.00
10883;DHT22;5494;51.796;10.952;2024-01-10T15:20:37;-5.90;1.00
10883;DHT22;5494;51.796;10.952;2024-01-10T15:23:05;-6.00;1.00
10883;DHT22;5494;51.796;10.952;2024-01-10T15:25:33;-6.00;1.00
10883;DHT22;5494;51.796;10.952;2024-01-10T15:28:01;-6.10;4.00
10883;DHT22;5494;51.796;10.952;2024-01-10T15:30:30;-6.10;16.90
10883;DHT22;5494;51.796;10.952;2024-01-10T15:33:14;-6.10;43.00
10883;DHT22;5494;51.796;10.952;2024-01-10T15:35:42;-6.20;37.50
10883;DHT22;5494;51.796;10.952;2024-01-10T15:38:11;-6.20;63.90
10883;DHT22;5494;51.796;10.952;2024-01-10T15:40:39;-6.10;54.40
10883;DHT22;5494;51.796;10.952;2024-01-10T15:43:08;-6.10;50.10
10883;DHT22;5494;51.796;10.952;2024-01-10T15:45:36;-6.40;56.20
10883;DHT22;5494;51.796;10.952;2024-01-10T15:48:05;-6.40;82.30
10883;DHT22;5494;51.796;10.952;2024-01-10T15:50:35;-6.40;95.30